Terminal Aerodrome Forecast
Issued by NWS

Home | Current Version | Previous Version | Graphics & Text | Print | Product List | Glossary On
Versions: 1 2 3 4 5 6 7 8 9 10 11 12 13 14 15 16 17 18 19 20 21 22 23 24 25
925
FTUS43 KMPX 190520
TAFRNH
TAF
KRNH 190520Z 1906/2006 16006KT 3SM BR SCT250
     FM190800 17005KT 2SM BR SCT005
     FM191000 17005KT 3SM BR BKN005
     FM191600 16006KT 5SM BR OVC007=

USA.gov is the U.S. government's official web portal to all federal, state and local government web resources and services.